Time;durP1;ratioP1;P1;durP2;ratioP2;P2;SDS_P1;SDS_P2;PMS_P1;PMS_P2;Temp;Humidity;BMP_temperature;BMP_pressure;BME280_temperature;BME280_humidity;BME280_pressure;Samples;Min_cycle;Max_cycle;Signal;HPM_P1;HPM_P2
2024/01/26 00:00:48;;;;;;;;;;;;;;;;;;4963690;28;19910;-63
2024/01/26 00:03:13;;;;;;;;;;;;;;;;;;4967639;28;19937;-62
2024/01/26 00:05:38;;;;;;;;;;;;;;;;;;4967550;28;20012;-62
2024/01/26 00:08:05;;;;;;;;;;;;;;;;;;4967351;28;20645;-62
2024/01/26 00:10:30;;;;;;;;;;;;;;;;;;4927793;28;19927;-62
2024/01/26 00:12:55;;;;;;;;;;;;;;;;;;4965334;28;19925;-62
2024/01/26 00:15:20;;;;;;;;;;;;;;;;;;4966935;28;19945;-62
2024/01/26 00:17:46;;;;;;;;;;;;;;;;;;4967729;28;20556;-62
2024/01/26 00:20:11;;;;;;;;;;;;;;;;;;4967224;28;19922;-62
2024/01/26 00:22:36;;;;;;;;;;;;;;;;;;4967233;28;19925;-62
2024/01/26 00:25:01;;;;;;;;;;;;;;;;;;4934694;28;20420;-62
2024/01/26 00:27:27;;;;;;;;;;;;;;;;;;4928529;29;19919;-62
2024/01/26 00:29:52;;;;;;;;;;;;;;;;;;4927704;29;19918;-62
2024/01/26 00:32:17;;;;;;;;;;;;;;;;;;4931035;29;19939;-62
2024/01/26 00:34:42;;;;;;;;;;;;;;;;;;4933921;29;19922;-62
2024/01/26 00:37:08;;;;;;;;;;;;;;;;;;4929416;29;20507;-62
2024/01/26 00:39:33;;;;;;;;;;;;;;;;;;4936381;28;19929;-62
2024/01/26 00:41:58;;;;;;;;;;;;;;;;;;4946773;28;19938;-61
2024/01/26 00:44:23;;;;;;;;;;;;;;;;;;4948220;28;19951;-62
2024/01/26 00:46:49;;;;;;;;;;;;;;;;;;4947598;28;20418;-61
2024/01/26 00:49:14;;;;;;;;;;;;;;;;;;4946555;28;19996;-62
2024/01/26 00:51:39;;;;;;;;;;;;;;;;;;4940201;29;19958;-61
2024/01/26 00:54:04;;;;;;;;;;;;;;;;;;4938193;28;19927;-62
2024/01/26 00:56:30;;;;;;;;;;;;;;;;;;4928635;29;20604;-62
2024/01/26 00:58:56;;;;;;;;;;;;;;;;;;4932853;28;19953;-62
2024/01/26 01:01:22;;;;;;;;;;;;;;;;;;4966665;28;19914;-62
2024/01/26 01:03:48;;;;;;;;;;;;;;;;;;4967492;28;19921;-62
2024/01/26 01:06:13;;;;;;;;;;;;;;;;;;4965817;28;19926;-61
2024/01/26 01:08:38;;;;;;;;;;;;;;;;;;4957385;28;19923;-62
2024/01/26 01:11:05;;;;;;;;;;;;;;;;;;4949550;28;19925;-62
2024/01/26 01:13:31;;;;;;;;;;;;;;;;;;4966088;28;20711;-62
2024/01/26 01:15:56;;;;;;;;;;;;;;;;;;4967168;28;19914;-62
2024/01/26 01:18:21;;;;;;;;;;;;;;;;;;4966175;28;20284;-61
2024/01/26 01:20:46;;;;;;;;;;;;;;;;;;4965963;28;19945;-62
2024/01/26 01:23:13;;;;;;;;;;;;;;;;;;4964795;28;19976;-62
2024/01/26 01:25:38;;;;;;;;;;;;;;;;;;4935211;28;19922;-62
2024/01/26 01:28:03;;;;;;;;;;;;;;;;;;4927629;29;19915;-61
2024/01/26 01:30:28;;;;;;;;;;;;;;;;;;4927500;29;19921;-62
2024/01/26 01:32:54;;;;;;;;;;;;;;;;;;4927654;29;20398;-61
2024/01/26 01:35:20;;;;;;;;;;;;;;;;;;4926945;28;19925;-62
2024/01/26 01:37:45;;;;;;;;;;;;;;;;;;4927736;28;20006;-62
2024/01/26 01:40:11;;;;;;;;;;;;;;;;;;4926552;28;19922;-62
2024/01/26 01:42:36;;;;;;;;;;;;;;;;;;4927570;29;19942;-62
2024/01/26 01:45:09;;;;;;;;;;;;;;;;;;4927536;29;20514;-61
2024/01/26 01:47:34;;;;;;;;;;;;;;;;;;4927178;29;19919;-62
2024/01/26 01:49:59;;;;;;;;;;;;;;;;;;4927767;29;19919;-62
2024/01/26 01:52:26;;;;;;;;;;;;;;;;;;4926636;29;19910;-64
2024/01/26 01:54:53;;;;;;;;;;;;;;;;;;4940303;29;19974;-62
2024/01/26 01:57:20;;;;;;;;;;;;;;;;;;4946777;28;19918;-62
2024/01/26 01:59:45;;;;;;;;;;;;;;;;;;4954461;28;20405;-62
2024/01/26 02:02:10;;;;;;;;;;;;;;;;;;4965830;28;19918;-62
2024/01/26 02:04:35;;;;;;;;;;;;;;;;;;4965629;28;20407;-62
2024/01/26 02:07:04;;;;;;;;;;;;;;;;;;4956439;28;19919;-62
2024/01/26 02:09:29;;;;;;;;;;;;;;;;;;4933734;28;19966;-62
2024/01/26 02:11:55;;;;;;;;;;;;;;;;;;4936833;29;19922;-62
2024/01/26 02:14:21;;;;;;;;;;;;;;;;;;4945767;28;19929;-62
2024/01/26 02:16:53;;;;;;;;;;;;;;;;;;4945901;28;19918;-62
2024/01/26 02:19:18;;;;;;;;;;;;;;;;;;4946063;28;19997;-61
2024/01/26 02:21:43;;;;;;;;;;;;;;;;;;4946253;29;20013;-61
2024/01/26 02:24:08;;;;;;;;;;;;;;;;;;4940997;28;19969;-61
2024/01/26 02:26:34;;;;;;;;;;;;;;;;;;4925862;29;20411;-61
2024/01/26 02:28:59;;;;;;;;;;;;;;;;;;4927255;29;19968;-61
2024/01/26 02:31:24;;;;;;;;;;;;;;;;;;4925990;29;19965;-61
2024/01/26 02:33:49;;;;;;;;;;;;;;;;;;4927095;29;20657;-61
2024/01/26 02:36:14;;;;;;;;;;;;;;;;;;4927228;29;20352;-61
2024/01/26 02:38:40;;;;;;;;;;;;;;;;;;4925491;29;19957;-62
2024/01/26 02:41:05;;;;;;;;;;;;;;;;;;4926560;29;19966;-61
2024/01/26 02:43:30;;;;;;;;;;;;;;;;;;4926709;29;19922;-61
2024/01/26 02:45:55;;;;;;;;;;;;;;;;;;4927224;29;19910;-61
2024/01/26 02:48:23;;;;;;;;;;;;;;;;;;4926710;29;20455;-61
2024/01/26 02:50:48;;;;;;;;;;;;;;;;;;4926278;29;19955;-61
2024/01/26 02:53:14;;;;;;;;;;;;;;;;;;4928285;29;19966;-61
2024/01/26 02:55:39;;;;;;;;;;;;;;;;;;4949724;29;20885;-62
2024/01/26 02:58:04;;;;;;;;;;;;;;;;;;4949747;29;19914;-62
2024/01/26 03:00:29;;;;;;;;;;;;;;;;;;4964578;28;19926;-61
2024/01/26 03:02:55;;;;;;;;;;;;;;;;;;4968747;28;20060;-61
2024/01/26 03:05:20;;;;;;;;;;;;;;;;;;4968572;28;20004;-61
2024/01/26 03:07:45;;;;;;;;;;;;;;;;;;4954211;28;20714;-61
2024/01/26 03:10:10;;;;;;;;;;;;;;;;;;4938478;28;19929;-61
2024/01/26 03:12:36;;;;;;;;;;;;;;;;;;4949683;29;19915;-62
2024/01/26 03:15:01;;;;;;;;;;;;;;;;;;4949932;28;19962;-61
2024/01/26 03:17:26;;;;;;;;;;;;;;;;;;4942126;28;19922;-61
2024/01/26 03:19:51;;;;;;;;;;;;;;;;;;4930061;29;19922;-61
2024/01/26 03:22:17;;;;;;;;;;;;;;;;;;4930344;29;20335;-61
2024/01/26 03:24:43;;;;;;;;;;;;;;;;;;4929843;28;19998;-63
2024/01/26 03:27:08;;;;;;;;;;;;;;;;;;4929707;29;19922;-61
2024/01/26 03:29:33;;;;;;;;;;;;;;;;;;4930174;29;19933;-61
2024/01/26 03:31:59;;;;;;;;;;;;;;;;;;4929805;29;20030;-61
2024/01/26 03:34:25;;;;;;;;;;;;;;;;;;4929777;29;19918;-62
2024/01/26 03:36:50;;;;;;;;;;;;;;;;;;4929365;29;20567;-61
2024/01/26 03:39:15;;;;;;;;;;;;;;;;;;4930734;29;19925;-61
2024/01/26 03:41:40;;;;;;;;;;;;;;;;;;4912302;29;19978;-61
2024/01/26 03:44:06;;;;;;;;;;;;;;;;;;4929846;29;19918;-61
2024/01/26 03:46:31;;;;;;;;;;;;;;;;;;4929953;29;19931;-61
2024/01/26 03:48:56;;;;;;;;;;;;;;;;;;4929604;29;20022;-61
2024/01/26 03:51:21;;;;;;;;;;;;;;;;;;4929608;29;20439;-61
2024/01/26 03:53:47;;;;;;;;;;;;;;;;;;4930104;29;20472;-62
2024/01/26 03:56:12;;;;;;;;;;;;;;;;;;4929550;29;20761;-61
2024/01/26 03:58:38;;;;;;;;;;;;;;;;;;4928730;29;19918;-62
2024/01/26 04:01:03;;;;;;;;;;;;;;;;;;4968633;28;20306;-61
2024/01/26 04:03:28;;;;;;;;;;;;;;;;;;4967152;28;19922;-61
2024/01/26 04:05:53;;;;;;;;;;;;;;;;;;4965662;28;19957;-62
2024/01/26 04:08:19;;;;;;;;;;;;;;;;;;4947227;28;19922;-61
2024/01/26 04:10:44;;;;;;;;;;;;;;;;;;4936754;29;19922;-61
2024/01/26 04:13:09;;;;;;;;;;;;;;;;;;4947349;29;19918;-61
2024/01/26 04:15:34;;;;;;;;;;;;;;;;;;4947814;28;19918;-61
2024/01/26 04:18:00;;;;;;;;;;;;;;;;;;4946247;29;19973;-62
2024/01/26 04:20:25;;;;;;;;;;;;;;;;;;4948274;28;20639;-61
2024/01/26 04:22:50;;;;;;;;;;;;;;;;;;4948038;28;19915;-61
2024/01/26 04:25:15;;;;;;;;;;;;;;;;;;4931717;28;19946;-61
2024/01/26 04:27:41;;;;;;;;;;;;;;;;;;4929423;29;19954;-61
2024/01/26 04:30:06;;;;;;;;;;;;;;;;;;4928380;29;20316;-61
2024/01/26 04:32:32;;;;;;;;;;;;;;;;;;4928601;29;19966;-61
2024/01/26 04:34:57;;;;;;;;;;;;;;;;;;4928790;29;19922;-62
2024/01/26 04:37:22;;;;;;;;;;;;;;;;;;4928648;29;19998;-62
2024/01/26 04:39:48;;;;;;;;;;;;;;;;;;4935541;28;19958;-61
2024/01/26 04:42:13;;;;;;;;;;;;;;;;;;4928528;29;20005;-61
2024/01/26 04:44:38;;;;;;;;;;;;;;;;;;4928753;29;19919;-62
2024/01/26 04:47:03;;;;;;;;;;;;;;;;;;4928564;29;19950;-62
2024/01/26 04:49:29;;;;;;;;;;;;;;;;;;4928602;29;20014;-61
2024/01/26 04:51:54;;;;;;;;;;;;;;;;;;4929083;29;19907;-61
2024/01/26 04:54:19;;;;;;;;;;;;;;;;;;4927326;29;20041;-61
2024/01/26 04:56:44;;;;;;;;;;;;;;;;;;4927974;29;20026;-61
2024/01/26 04:59:10;;;;;;;;;;;;;;;;;;4936888;28;19937;-61
2024/01/26 05:01:35;;;;;;;;;;;;;;;;;;4950722;28;19926;-62
2024/01/26 05:04:03;;;;;;;;;;;;;;;;;;4928777;29;19914;-61
2024/01/26 05:06:28;;;;;;;;;;;;;;;;;;4932873;29;19927;-61
2024/01/26 05:08:53;;;;;;;;;;;;;;;;;;4944336;28;20423;-61
2024/01/26 05:11:19;;;;;;;;;;;;;;;;;;4945039;29;19926;-61
2024/01/26 05:13:44;;;;;;;;;;;;;;;;;;4945696;28;19926;-62
2024/01/26 05:16:09;;;;;;;;;;;;;;;;;;4930888;29;19919;-63
2024/01/26 05:18:34;;;;;;;;;;;;;;;;;;4927558;29;20299;-62
2024/01/26 05:21:00;;;;;;;;;;;;;;;;;;4927603;29;20557;-62
2024/01/26 05:23:25;;;;;;;;;;;;;;;;;;4929225;29;19926;-62
2024/01/26 05:25:50;;;;;;;;;;;;;;;;;;4926799;29;19927;-62
2024/01/26 05:28:15;;;;;;;;;;;;;;;;;;4927352;29;19942;-62
2024/01/26 05:30:41;;;;;;;;;;;;;;;;;;4928297;29;19907;-62
2024/01/26 05:33:06;;;;;;;;;;;;;;;;;;4929047;29;19919;-62
2024/01/26 05:35:31;;;;;;;;;;;;;;;;;;4946323;28;19922;-62
2024/01/26 05:37:56;;;;;;;;;;;;;;;;;;4947147;28;20420;-62
2024/01/26 05:40:22;;;;;;;;;;;;;;;;;;4927264;29;20016;-61
2024/01/26 05:42:47;;;;;;;;;;;;;;;;;;4930160;28;20013;-62
2024/01/26 05:45:13;;;;;;;;;;;;;;;;;;4927604;29;19949;-63
2024/01/26 05:47:38;;;;;;;;;;;;;;;;;;4927798;29;19923;-62
2024/01/26 05:50:04;;;;;;;;;;;;;;;;;;4927053;29;19973;-62
2024/01/26 05:52:29;;;;;;;;;;;;;;;;;;4927469;29;19914;-62
2024/01/26 05:54:54;;;;;;;;;;;;;;;;;;4931639;29;19922;-62
2024/01/26 05:57:20;;;;;;;;;;;;;;;;;;4927109;29;19919;-61
2024/01/26 05:59:45;;;;;;;;;;;;;;;;;;4944325;28;19925;-62
2024/01/26 06:02:11;;;;;;;;;;;;;;;;;;4965839;28;19921;-62
2024/01/26 06:04:36;;;;;;;;;;;;;;;;;;4965376;28;19921;-62
2024/01/26 06:07:02;;;;;;;;;;;;;;;;;;4956457;28;19915;-62
2024/01/26 06:09:27;;;;;;;;;;;;;;;;;;4941267;28;20315;-62
2024/01/26 06:11:52;;;;;;;;;;;;;;;;;;4946298;28;19961;-62
2024/01/26 06:14:17;;;;;;;;;;;;;;;;;;4945656;28;19922;-62
2024/01/26 06:16:43;;;;;;;;;;;;;;;;;;4946501;28;19922;-62
2024/01/26 06:19:08;;;;;;;;;;;;;;;;;;4945997;29;19910;-62
2024/01/26 06:21:33;;;;;;;;;;;;;;;;;;4946360;28;19925;-62
2024/01/26 06:23:59;;;;;;;;;;;;;;;;;;4939454;28;19915;-62
2024/01/26 06:26:25;;;;;;;;;;;;;;;;;;4926898;29;19923;-62
2024/01/26 06:28:50;;;;;;;;;;;;;;;;;;4925663;29;19942;-62
2024/01/26 06:31:15;;;;;;;;;;;;;;;;;;4926062;29;19914;-62
2024/01/26 06:33:41;;;;;;;;;;;;;;;;;;4927344;29;19915;-62
2024/01/26 06:36:06;;;;;;;;;;;;;;;;;;4926657;29;19997;-61
2024/01/26 06:38:31;;;;;;;;;;;;;;;;;;4926407;29;19929;-61
2024/01/26 06:40:59;;;;;;;;;;;;;;;;;;4926188;29;20014;-61
2024/01/26 06:43:24;;;;;;;;;;;;;;;;;;4926472;29;20739;-61
2024/01/26 06:45:49;;;;;;;;;;;;;;;;;;4934937;29;19930;-61
2024/01/26 06:48:14;;;;;;;;;;;;;;;;;;4945436;28;19919;-61
2024/01/26 06:50:40;;;;;;;;;;;;;;;;;;4945777;28;20391;-61
2024/01/26 06:53:05;;;;;;;;;;;;;;;;;;4944772;28;20016;-61
2024/01/26 06:55:30;;;;;;;;;;;;;;;;;;4930161;29;19918;-61
2024/01/26 06:57:56;;;;;;;;;;;;;;;;;;4927027;29;19950;-61
2024/01/26 07:00:21;;;;;;;;;;;;;;;;;;4952977;28;19929;-61
2024/01/26 07:02:46;;;;;;;;;;;;;;;;;;4964801;28;19914;-61
2024/01/26 07:05:12;;;;;;;;;;;;;;;;;;4960193;28;19925;-62
2024/01/26 07:07:37;;;;;;;;;;;;;;;;;;4949933;28;19919;-61
2024/01/26 07:10:02;;;;;;;;;;;;;;;;;;4935087;28;20450;-62
2024/01/26 07:12:28;;;;;;;;;;;;;;;;;;4939597;29;19970;-62
2024/01/26 07:14:53;;;;;;;;;;;;;;;;;;4945477;28;19922;-62
2024/01/26 07:17:18;;;;;;;;;;;;;;;;;;4945068;28;19930;-62
2024/01/26 07:19:44;;;;;;;;;;;;;;;;;;4943705;28;19918;-61
2024/01/26 07:22:09;;;;;;;;;;;;;;;;;;4940477;29;20154;-62
2024/01/26 07:24:34;;;;;;;;;;;;;;;;;;4936807;28;19922;-62
2024/01/26 07:26:59;;;;;;;;;;;;;;;;;;4923594;29;19919;-62
2024/01/26 07:29:25;;;;;;;;;;;;;;;;;;4923671;29;20017;-62
2024/01/26 07:31:50;;;;;;;;;;;;;;;;;;4924422;29;19915;-61
2024/01/26 07:34:16;;;;;;;;;;;;;;;;;;4921912;29;19918;-61
2024/01/26 07:36:41;;;;;;;;;;;;;;;;;;4924760;29;20585;-61
2024/01/26 07:39:07;;;;;;;;;;;;;;;;;;4927769;28;20430;-61
2024/01/26 07:41:32;;;;;;;;;;;;;;;;;;4926450;29;19945;-60
2024/01/26 07:43:57;;;;;;;;;;;;;;;;;;4926580;29;19924;-61
2024/01/26 07:46:23;;;;;;;;;;;;;;;;;;4926560;29;19914;-61
2024/01/26 07:48:48;;;;;;;;;;;;;;;;;;4926492;29;19910;-62
2024/01/26 07:51:13;;;;;;;;;;;;;;;;;;4927369;29;19926;-61
2024/01/26 07:53:38;;;;;;;;;;;;;;;;;;4926244;29;19926;-61
2024/01/26 07:56:04;;;;;;;;;;;;;;;;;;4928035;29;20004;-61
2024/01/26 07:58:29;;;;;;;;;;;;;;;;;;4927429;29;20463;-61
2024/01/26 08:00:54;;;;;;;;;;;;;;;;;;4963612;28;20001;-61
2024/01/26 08:03:19;;;;;;;;;;;;;;;;;;4965634;28;20391;-61
2024/01/26 08:05:44;;;;;;;;;;;;;;;;;;4965111;28;20848;-61
2024/01/26 08:08:10;;;;;;;;;;;;;;;;;;4945649;28;20296;-61
2024/01/26 08:10:35;;;;;;;;;;;;;;;;;;4917260;29;20347;-61
2024/01/26 08:13:00;;;;;;;;;;;;;;;;;;4945533;29;19914;-61
2024/01/26 08:15:26;;;;;;;;;;;;;;;;;;4943915;28;19928;-61
2024/01/26 08:17:51;;;;;;;;;;;;;;;;;;4945217;28;19946;-61
2024/01/26 08:20:16;;;;;;;;;;;;;;;;;;4943594;28;19926;-61
2024/01/26 08:22:43;;;;;;;;;;;;;;;;;;4929686;29;20005;-61
2024/01/26 08:25:09;;;;;;;;;;;;;;;;;;4930713;28;19925;-61
2024/01/26 08:27:35;;;;;;;;;;;;;;;;;;4926496;29;19981;-61
2024/01/26 08:30:00;;;;;;;;;;;;;;;;;;4925933;29;19922;-61
2024/01/26 08:32:26;;;;;;;;;;;;;;;;;;4926617;29;19925;-61
2024/01/26 08:34:51;;;;;;;;;;;;;;;;;;4926492;29;19923;-61
2024/01/26 08:37:16;;;;;;;;;;;;;;;;;;4925593;29;19919;-61
2024/01/26 08:39:45;;;;;;;;;;;;;;;;;;4925419;29;19919;-62
2024/01/26 08:42:11;;;;;;;;;;;;;;;;;;4926862;29;19929;-61
2024/01/26 08:44:36;;;;;;;;;;;;;;;;;;4925803;29;19919;-61
2024/01/26 08:47:01;;;;;;;;;;;;;;;;;;4926868;29;20609;-61
2024/01/26 08:49:26;;;;;;;;;;;;;;;;;;4926635;29;20533;-61
2024/01/26 08:51:52;;;;;;;;;;;;;;;;;;4925722;29;19915;-61
2024/01/26 08:54:18;;;;;;;;;;;;;;;;;;4932796;29;20486;-61
2024/01/26 08:56:43;;;;;;;;;;;;;;;;;;4945368;28;19915;-61
2024/01/26 08:59:09;;;;;;;;;;;;;;;;;;4949480;28;20338;-61
2024/01/26 09:01:35;;;;;;;;;;;;;;;;;;4964461;28;19924;-61
2024/01/26 09:04:00;;;;;;;;;;;;;;;;;;4965072;28;19924;-61
2024/01/26 09:06:25;;;;;;;;;;;;;;;;;;4959306;28;20390;-61
2024/01/26 09:08:51;;;;;;;;;;;;;;;;;;4943296;28;19922;-61
2024/01/26 09:11:16;;;;;;;;;;;;;;;;;;4930373;28;19934;-61
2024/01/26 09:13:41;;;;;;;;;;;;;;;;;;4925541;29;19927;-61
2024/01/26 09:16:09;;;;;;;;;;;;;;;;;;4928858;29;19918;-61
2024/01/26 09:18:34;;;;;;;;;;;;;;;;;;4928828;29;19991;-61
2024/01/26 09:21:00;;;;;;;;;;;;;;;;;;4928792;28;19961;-61
2024/01/26 09:23:25;;;;;;;;;;;;;;;;;;4927828;29;19929;-61
2024/01/26 09:25:50;;;;;;;;;;;;;;;;;;4940206;28;19922;-61
2024/01/26 09:28:15;;;;;;;;;;;;;;;;;;4930569;29;19926;-61
2024/01/26 09:30:41;;;;;;;;;;;;;;;;;;4929197;29;19915;-61
2024/01/26 09:33:06;;;;;;;;;;;;;;;;;;4926535;28;19929;-61
2024/01/26 09:35:31;;;;;;;;;;;;;;;;;;4925821;29;19923;-61
2024/01/26 09:37:56;;;;;;;;;;;;;;;;;;4924504;29;19918;-61
2024/01/26 09:40:23;;;;;;;;;;;;;;;;;;4930429;28;19922;-61
2024/01/26 09:42:48;;;;;;;;;;;;;;;;;;4925563;29;19938;-61
2024/01/26 09:45:13;;;;;;;;;;;;;;;;;;4924971;29;20424;-61
2024/01/26 09:47:39;;;;;;;;;;;;;;;;;;4924761;29;19919;-61
2024/01/26 09:50:05;;;;;;;;;;;;;;;;;;4924943;29;19919;-61
2024/01/26 09:52:31;;;;;;;;;;;;;;;;;;4938891;28;20300;-61
2024/01/26 09:54:57;;;;;;;;;;;;;;;;;;4936693;29;19926;-61
2024/01/26 09:57:23;;;;;;;;;;;;;;;;;;4928944;28;20662;-61
2024/01/26 09:59:50;;;;;;;;;;;;;;;;;;4933145;28;19922;-61
2024/01/26 10:02:16;;;;;;;;;;;;;;;;;;4937867;28;19922;-61
2024/01/26 10:04:42;;;;;;;;;;;;;;;;;;4960562;28;20006;-61
2024/01/26 10:07:07;;;;;;;;;;;;;;;;;;4952162;28;20041;-61
2024/01/26 10:09:34;;;;;;;;;;;;;;;;;;4936637;28;19930;-61
2024/01/26 10:12:00;;;;;;;;;;;;;;;;;;4940023;28;20636;-62
2024/01/26 10:14:25;;;;;;;;;;;;;;;;;;4924514;29;19922;-61
2024/01/26 10:16:57;;;;;;;;;;;;;;;;;;4924271;29;20380;-62
2024/01/26 10:19:26;;;;;;;;;;;;;;;;;;4923829;29;20167;-62
2024/01/26 10:21:51;;;;;;;;;;;;;;;;;;4925241;29;19915;-62
2024/01/26 10:24:17;;;;;;;;;;;;;;;;;;4924838;29;20483;-62
2024/01/26 10:26:43;;;;;;;;;;;;;;;;;;4923908;29;20005;-62
2024/01/26 10:29:10;;;;;;;;;;;;;;;;;;4936645;28;19922;-62
2024/01/26 10:31:35;;;;;;;;;;;;;;;;;;4934997;28;19934;-61
2024/01/26 10:34:01;;;;;;;;;;;;;;;;;;4926336;28;19922;-61
2024/01/26 10:36:26;;;;;;;;;;;;;;;;;;4937727;29;19918;-61
2024/01/26 10:38:51;;;;;;;;;;;;;;;;;;4937707;28;19932;-61
2024/01/26 10:41:19;;;;;;;;;;;;;;;;;;4924058;29;19922;-61
2024/01/26 10:43:45;;;;;;;;;;;;;;;;;;4924112;29;19919;-61
2024/01/26 10:46:10;;;;;;;;;;;;;;;;;;4924063;29;20669;-60
2024/01/26 10:48:37;;;;;;;;;;;;;;;;;;4924471;29;19911;-62
2024/01/26 10:51:03;;;;;;;;;;;;;;;;;;4923627;29;19926;-62
2024/01/26 10:53:28;;;;;;;;;;;;;;;;;;4923759;29;20511;-62
2024/01/26 10:55:54;;;;;;;;;;;;;;;;;;4923049;29;19922;-62
2024/01/26 10:58:19;;;;;;;;;;;;;;;;;;4924134;29;19915;-61
2024/01/26 11:00:45;;;;;;;;;;;;;;;;;;4957598;28;19910;-61
2024/01/26 11:03:10;;;;;;;;;;;;;;;;;;4949474;28;19930;-61
2024/01/26 11:05:36;;;;;;;;;;;;;;;;;;4929973;28;19926;-61
2024/01/26 11:08:03;;;;;;;;;;;;;;;;;;4913877;29;19923;-61
2024/01/26 11:10:29;;;;;;;;;;;;;;;;;;4930149;28;20855;-62
2024/01/26 11:13:02;;;;;;;;;;;;;;;;;;4941678;29;19914;-61
2024/01/26 11:15:27;;;;;;;;;;;;;;;;;;4945792;28;20338;-61
2024/01/26 11:17:54;;;;;;;;;;;;;;;;;;4947525;28;20410;-61
2024/01/26 11:20:20;;;;;;;;;;;;;;;;;;4946873;28;19918;-61
2024/01/26 11:22:46;;;;;;;;;;;;;;;;;;4946666;28;20498;-61
2024/01/26 11:25:24;;;;;;;;;;;;;;;;;;4928323;28;19926;-61
2024/01/26 11:27:56;;;;;;;;;;;;;;;;;;4927581;29;20044;-61
2024/01/26 11:30:25;;;;;;;;;;;;;;;;;;4927795;29;19925;-61
2024/01/26 11:32:50;;;;;;;;;;;;;;;;;;4927294;29;19922;-61
2024/01/26 11:35:15;;;;;;;;;;;;;;;;;;4923348;29;19922;-61
2024/01/26 11:37:42;;;;;;;;;;;;;;;;;;4926171;29;19926;-61
2024/01/26 11:40:08;;;;;;;;;;;;;;;;;;4941507;28;20470;-61
2024/01/26 11:42:33;;;;;;;;;;;;;;;;;;4965901;28;19929;-60
2024/01/26 11:45:09;;;;;;;;;;;;;;;;;;4965332;28;19925;-60
2024/01/26 11:47:38;;;;;;;;;;;;;;;;;;4963794;28;20288;-61
2024/01/26 11:50:04;;;;;;;;;;;;;;;;;;4964849;28;19945;-61
2024/01/26 11:52:29;;;;;;;;;;;;;;;;;;4965772;28;20387;-61
2024/01/26 11:54:55;;;;;;;;;;;;;;;;;;4965384;28;19968;-61
2024/01/26 11:57:20;;;;;;;;;;;;;;;;;;4965054;28;20307;-61
2024/01/26 11:59:46;;;;;;;;;;;;;;;;;;4953769;28;19918;-61
2024/01/26 12:02:12;;;;;;;;;;;;;;;;;;4915310;29;19927;-61
2024/01/26 12:04:37;;;;;;;;;;;;;;;;;;4918581;28;20192;-62
2024/01/26 12:07:02;;;;;;;;;;;;;;;;;;4929438;28;19922;-61
2024/01/26 12:09:27;;;;;;;;;;;;;;;;;;4907852;29;19934;-61
2024/01/26 12:11:53;;;;;;;;;;;;;;;;;;4927352;28;20546;-61
2024/01/26 12:14:19;;;;;;;;;;;;;;;;;;4933917;29;20392;-62
2024/01/26 12:16:44;;;;;;;;;;;;;;;;;;4926006;29;20739;-61
2024/01/26 12:19:09;;;;;;;;;;;;;;;;;;4927587;29;19953;-61
2024/01/26 12:21:35;;;;;;;;;;;;;;;;;;4926094;29;20586;-61
2024/01/26 12:24:00;;;;;;;;;;;;;;;;;;4910635;29;20408;-61
2024/01/26 12:26:25;;;;;;;;;;;;;;;;;;4925564;29;19919;-60
2024/01/26 12:28:50;;;;;;;;;;;;;;;;;;4925798;29;20345;-61
2024/01/26 12:31:16;;;;;;;;;;;;;;;;;;4934797;28;20371;-61
2024/01/26 12:33:43;;;;;;;;;;;;;;;;;;4946169;28;19914;-60
2024/01/26 12:36:12;;;;;;;;;;;;;;;;;;4943864;28;19918;-61
2024/01/26 12:38:37;;;;;;;;;;;;;;;;;;4943675;28;19965;-60
2024/01/26 12:41:02;;;;;;;;;;;;;;;;;;4936687;28;19970;-61
2024/01/26 12:43:28;;;;;;;;;;;;;;;;;;4926832;29;19915;-61
2024/01/26 12:45:53;;;;;;;;;;;;;;;;;;4926510;29;19911;-61
2024/01/26 12:48:19;;;;;;;;;;;;;;;;;;4926672;29;20388;-61
2024/01/26 12:50:46;;;;;;;;;;;;;;;;;;4923144;28;19933;-61
2024/01/26 12:53:11;;;;;;;;;;;;;;;;;;4943073;28;19918;-61
2024/01/26 12:55:36;;;;;;;;;;;;;;;;;;4945715;28;19922;-62
2024/01/26 12:58:02;;;;;;;;;;;;;;;;;;4945840;29;19914;-61
2024/01/26 13:00:28;;;;;;;;;;;;;;;;;;4946107;28;20806;-61
2024/01/26 13:02:53;;;;;;;;;;;;;;;;;;4945177;28;19922;-61
2024/01/26 13:05:19;;;;;;;;;;;;;;;;;;4944716;28;19922;-61
2024/01/26 13:07:44;;;;;;;;;;;;;;;;;;4945021;28;19919;-61
2024/01/26 13:10:10;;;;;;;;;;;;;;;;;;4944792;29;19945;-61
2024/01/26 13:12:35;;;;;;;;;;;;;;;;;;4945083;28;19926;-61
2024/01/26 13:15:00;;;;;;;;;;;;;;;;;;4945191;28;19923;-61
2024/01/26 13:17:26;;;;;;;;;;;;;;;;;;4944577;28;20457;-61
2024/01/26 13:19:51;;;;;;;;;;;;;;;;;;4934026;28;19927;-61
2024/01/26 13:22:16;;;;;;;;;;;;;;;;;;4931440;29;19953;-62
2024/01/26 13:24:42;;;;;;;;;;;;;;;;;;4925069;28;19921;-61
2024/01/26 13:27:07;;;;;;;;;;;;;;;;;;4934483;28;19922;-61
2024/01/26 13:29:33;;;;;;;;;;;;;;;;;;4925908;29;19923;-61
2024/01/26 13:31:58;;;;;;;;;;;;;;;;;;4925150;29;19952;-61
2024/01/26 13:34:24;;;;;;;;;;;;;;;;;;4925285;29;20282;-61
2024/01/26 13:36:49;;;;;;;;;;;;;;;;;;4925748;29;20459;-61
2024/01/26 13:39:15;;;;;;;;;;;;;;;;;;4924348;29;20419;-61
2024/01/26 13:41:40;;;;;;;;;;;;;;;;;;4924480;28;19923;-61
2024/01/26 13:44:07;;;;;;;;;;;;;;;;;;4926984;28;20259;-61
2024/01/26 13:46:32;;;;;;;;;;;;;;;;;;4925450;29;19918;-61
2024/01/26 13:48:58;;;;;;;;;;;;;;;;;;4925229;29;20297;-62
2024/01/26 13:51:23;;;;;;;;;;;;;;;;;;4924695;29;20058;-62
2024/01/26 13:53:48;;;;;;;;;;;;;;;;;;4926187;29;19934;-61
2024/01/26 13:56:15;;;;;;;;;;;;;;;;;;4928950;29;20006;-62
2024/01/26 13:58:40;;;;;;;;;;;;;;;;;;4942438;28;19929;-61
2024/01/26 14:01:06;;;;;;;;;;;;;;;;;;4962735;28;19914;-62
2024/01/26 14:03:31;;;;;;;;;;;;;;;;;;4961693;28;19960;-62
2024/01/26 14:05:56;;;;;;;;;;;;;;;;;;4944752;28;20269;-61
2024/01/26 14:08:21;;;;;;;;;;;;;;;;;;4935566;28;19968;-61
2024/01/26 14:10:46;;;;;;;;;;;;;;;;;;4932782;28;19926;-62
2024/01/26 14:13:12;;;;;;;;;;;;;;;;;;4923060;28;21020;-62
2024/01/26 14:15:37;;;;;;;;;;;;;;;;;;4931036;28;19922;-62
2024/01/26 14:18:03;;;;;;;;;;;;;;;;;;4924352;29;20622;-61
2024/01/26 14:20:28;;;;;;;;;;;;;;;;;;4925422;29;19919;-62
2024/01/26 14:22:54;;;;;;;;;;;;;;;;;;4924770;29;20348;-61
2024/01/26 14:25:20;;;;;;;;;;;;;;;;;;4923843;29;20371;-61
2024/01/26 14:27:49;;;;;;;;;;;;;;;;;;4925796;29;19922;-61
2024/01/26 14:30:15;;;;;;;;;;;;;;;;;;4924174;29;19919;-61
2024/01/26 14:32:40;;;;;;;;;;;;;;;;;;4923078;29;19919;-61
2024/01/26 14:35:06;;;;;;;;;;;;;;;;;;4924682;29;20417;-61
2024/01/26 14:37:31;;;;;;;;;;;;;;;;;;4924209;29;19923;-61
2024/01/26 14:39:57;;;;;;;;;;;;;;;;;;4924941;29;19919;-61
2024/01/26 14:42:22;;;;;;;;;;;;;;;;;;4925074;29;19997;-61
2024/01/26 14:44:47;;;;;;;;;;;;;;;;;;4923902;29;20004;-61
2024/01/26 14:47:13;;;;;;;;;;;;;;;;;;4924116;29;19919;-61
2024/01/26 14:49:40;;;;;;;;;;;;;;;;;;4922754;29;19985;-61
2024/01/26 14:52:06;;;;;;;;;;;;;;;;;;4923316;29;19914;-61
2024/01/26 14:54:31;;;;;;;;;;;;;;;;;;4923217;29;19925;-62
2024/01/26 14:56:57;;;;;;;;;;;;;;;;;;4924709;29;19951;-61
2024/01/26 14:59:22;;;;;;;;;;;;;;;;;;4934761;28;19925;-61
2024/01/26 15:01:47;;;;;;;;;;;;;;;;;;4962112;28;19918;-61
2024/01/26 15:04:13;;;;;;;;;;;;;;;;;;4958148;28;19930;-61
2024/01/26 15:06:38;;;;;;;;;;;;;;;;;;4930616;29;19919;-61
2024/01/26 15:09:05;;;;;;;;;;;;;;;;;;4926581;28;19927;-61
2024/01/26 15:11:30;;;;;;;;;;;;;;;;;;4927387;28;19930;-61
2024/01/26 15:13:55;;;;;;;;;;;;;;;;;;4922406;29;19923;-61
2024/01/26 15:16:21;;;;;;;;;;;;;;;;;;4924643;29;19915;-61
2024/01/26 15:18:46;;;;;;;;;;;;;;;;;;4924132;29;20812;-61
2024/01/26 15:21:18;;;;;;;;;;;;;;;;;;4924418;29;19919;-61
2024/01/26 15:23:43;;;;;;;;;;;;;;;;;;4922755;29;20010;-61
2024/01/26 15:26:08;;;;;;;;;;;;;;;;;;4923677;29;20013;-61
2024/01/26 15:28:33;;;;;;;;;;;;;;;;;;4922313;29;20027;-61
2024/01/26 15:30:58;;;;;;;;;;;;;;;;;;4923271;29;19965;-61
2024/01/26 15:33:24;;;;;;;;;;;;;;;;;;4923075;29;19926;-61
2024/01/26 15:35:49;;;;;;;;;;;;;;;;;;4911869;29;19927;-61
2024/01/26 15:38:14;;;;;;;;;;;;;;;;;;4942543;29;20395;-61
2024/01/26 15:40:40;;;;;;;;;;;;;;;;;;4943513;28;19919;-62
2024/01/26 15:43:05;;;;;;;;;;;;;;;;;;4943501;29;20331;-61
2024/01/26 15:45:30;;;;;;;;;;;;;;;;;;4942089;28;20400;-61
2024/01/26 15:47:56;;;;;;;;;;;;;;;;;;4935396;29;19925;-61
2024/01/26 15:50:22;;;;;;;;;;;;;;;;;;4923763;29;20534;-61
2024/01/26 15:52:47;;;;;;;;;;;;;;;;;;4924281;29;19918;-61
2024/01/26 15:55:13;;;;;;;;;;;;;;;;;;4925398;28;19922;-61
2024/01/26 15:57:39;;;;;;;;;;;;;;;;;;4930674;29;19919;-61
2024/01/26 16:00:04;;;;;;;;;;;;;;;;;;4932436;28;19977;-61
2024/01/26 16:02:30;;;;;;;;;;;;;;;;;;4926938;29;20013;-61
2024/01/26 16:04:55;;;;;;;;;;;;;;;;;;4926963;29;19970;-61
2024/01/26 16:07:21;;;;;;;;;;;;;;;;;;4938758;28;20016;-62
2024/01/26 16:09:46;;;;;;;;;;;;;;;;;;4945800;29;19910;-62
2024/01/26 16:12:11;;;;;;;;;;;;;;;;;;4945964;28;19922;-61
2024/01/26 16:14:37;;;;;;;;;;;;;;;;;;4945268;28;20370;-62
2024/01/26 16:17:02;;;;;;;;;;;;;;;;;;4946085;28;19929;-61
2024/01/26 16:19:28;;;;;;;;;;;;;;;;;;4945388;28;20000;-61
2024/01/26 16:21:53;;;;;;;;;;;;;;;;;;4946293;29;19923;-61
2024/01/26 16:24:18;;;;;;;;;;;;;;;;;;4945399;28;19918;-61
2024/01/26 16:26:43;;;;;;;;;;;;;;;;;;4943361;28;20028;-61
2024/01/26 16:29:09;;;;;;;;;;;;;;;;;;4942794;28;20001;-61
2024/01/26 16:31:35;;;;;;;;;;;;;;;;;;4945397;28;19918;-61
2024/01/26 16:34:01;;;;;;;;;;;;;;;;;;4945170;28;20397;-61